Time;durP1;ratioP1;P1;durP2;ratioP2;P2;SDS_P1;SDS_P2;PMS_P1;PMS_P2;Temp;Humidity;BMP_temperature;BMP_pressure;BME280_temperature;BME280_humidity;BME280_pressure;Samples;Min_cycle;Max_cycle;Signal;HPM_P1;HPM_P2
2023/08/23 00:01:13;;;;;;;8.13;5.47;;;;;;;;;;4975234;28;20054;-57
2023/08/23 00:03:39;;;;;;;7.53;5.70;;;;;;;;;;4975124;28;20059;-57
2023/08/23 00:06:05;;;;;;;8.75;5.90;;;;;;;;;;4972839;28;20483;-57
2023/08/23 00:08:31;;;;;;;6.72;5.25;;;;;;;;;;4973664;28;20509;-57
2023/08/23 00:10:57;;;;;;;8.32;5.82;;;;;;;;;;4974190;28;20042;-57
2023/08/23 00:13:23;;;;;;;7.75;5.43;;;;;;;;;;4973326;28;20053;-57
2023/08/23 00:15:49;;;;;;;7.32;5.30;;;;;;;;;;4974032;28;20047;-57
2023/08/23 00:18:15;;;;;;;9.95;6.38;;;;;;;;;;4973013;28;20126;-58
2023/08/23 00:20:41;;;;;;;9.75;6.82;;;;;;;;;;4974486;28;20046;-59
2023/08/23 00:23:07;;;;;;;8.00;6.15;;;;;;;;;;4971770;28;20046;-58
2023/08/23 00:25:33;;;;;;;8.57;5.68;;;;;;;;;;4974116;28;20051;-57
2023/08/23 00:27:59;;;;;;;8.73;6.43;;;;;;;;;;4971177;28;20050;-57
2023/08/23 00:30:25;;;;;;;9.02;6.43;;;;;;;;;;4972830;28;20122;-57
2023/08/23 00:32:51;;;;;;;7.93;6.30;;;;;;;;;;4974037;28;20042;-57
2023/08/23 00:35:17;;;;;;;8.43;6.00;;;;;;;;;;4972671;28;20051;-57
2023/08/23 00:37:43;;;;;;;8.77;6.38;;;;;;;;;;4972060;28;20383;-58
2023/08/23 00:40:10;;;;;;;11.82;7.25;;;;;;;;;;4971319;28;20057;-57
2023/08/23 00:42:36;;;;;;;9.95;7.32;;;;;;;;;;4972771;28;20109;-57
2023/08/23 00:45:02;;;;;;;8.25;6.25;;;;;;;;;;4972261;28;20059;-58
2023/08/23 00:47:29;;;;;;;8.23;6.60;;;;;;;;;;4974713;28;20057;-57
2023/08/23 00:49:57;;;;;;;7.50;6.15;;;;;;;;;;4972406;28;20087;-57
2023/08/23 00:52:27;;;;;;;9.80;6.90;;;;;;;;;;4967915;28;20054;-58
2023/08/23 00:54:54;;;;;;;7.68;5.72;;;;;;;;;;4971312;28;20386;-57
2023/08/23 00:57:21;;;;;;;8.30;5.97;;;;;;;;;;4988308;28;20368;-57
2023/08/23 00:59:47;;;;;;;7.22;6.20;;;;;;;;;;4973644;28;20046;-56
2023/08/23 01:02:13;;;;;;;7.68;5.88;;;;;;;;;;4973274;28;20055;-58
2023/08/23 01:04:39;;;;;;;9.95;6.95;;;;;;;;;;4966035;28;20046;-57
2023/08/23 01:07:08;;;;;;;10.85;7.18;;;;;;;;;;4981582;28;20142;-57
2023/08/23 01:09:38;;;;;;;9.27;6.70;;;;;;;;;;4970247;28;20051;-57
2023/08/23 01:12:10;;;;;;;9.25;6.80;;;;;;;;;;4970879;28;20047;-57
2023/08/23 01:14:40;;;;;;;10.40;6.20;;;;;;;;;;4972438;28;20052;-57
2023/08/23 01:17:07;;;;;;;10.38;6.00;;;;;;;;;;4987982;28;20055;-57
2023/08/23 01:19:33;;;;;;;9.90;6.93;;;;;;;;;;4970785;28;20047;-56
2023/08/23 01:22:01;;;;;;;9.63;7.53;;;;;;;;;;4973860;28;20043;-57
2023/08/23 01:24:28;;;;;;;11.75;8.52;;;;;;;;;;4971387;28;20043;-58
2023/08/23 01:26:54;;;;;;;12.13;8.25;;;;;;;;;;4973483;28;20039;-58
2023/08/23 01:29:20;;;;;;;9.55;7.82;;;;;;;;;;4987947;28;20041;-57
2023/08/23 01:31:46;;;;;;;14.40;7.95;;;;;;;;;;4973309;28;20051;-57
2023/08/23 01:34:21;;;;;;;10.48;8.25;;;;;;;;;;4971971;28;20046;-58
2023/08/23 01:36:47;;;;;;;12.75;8.25;;;;;;;;;;4973951;28;20050;-57
2023/08/23 01:39:13;;;;;;;13.68;9.25;;;;;;;;;;4973396;28;20097;-57
2023/08/23 01:41:39;;;;;;;14.20;9.82;;;;;;;;;;4973525;28;20046;-57
2023/08/23 01:44:05;;;;;;;14.57;10.50;;;;;;;;;;4972513;28;20126;-57
2023/08/23 01:46:33;;;;;;;16.77;12.40;;;;;;;;;;4972335;28;20043;-57
2023/08/23 01:48:59;;;;;;;18.02;11.00;;;;;;;;;;4972350;28;20077;-57
2023/08/23 01:51:25;;;;;;;22.42;13.20;;;;;;;;;;4973422;28;20043;-57
2023/08/23 01:53:51;;;;;;;22.38;11.18;;;;;;;;;;4973603;28;20047;-56
2023/08/23 01:56:17;;;;;;;15.43;11.20;;;;;;;;;;4971780;28;20130;-57
2023/08/23 01:58:45;;;;;;;15.63;10.82;;;;;;;;;;4972667;28;20038;-57
2023/08/23 02:01:15;;;;;;;12.25;9.55;;;;;;;;;;4973047;28;20118;-57
2023/08/23 02:03:41;;;;;;;14.90;10.95;;;;;;;;;;4971797;28;20094;-57
2023/08/23 02:06:07;;;;;;;18.67;10.85;;;;;;;;;;4969137;28;20043;-57
2023/08/23 02:08:33;;;;;;;17.48;11.07;;;;;;;;;;4983778;28;20498;-57
2023/08/23 02:10:59;;;;;;;19.77;11.95;;;;;;;;;;4960869;28;20544;-57
2023/08/23 02:13:25;;;;;;;20.42;13.57;;;;;;;;;;4971054;28;20090;-57
2023/08/23 02:15:51;;;;;;;21.35;13.20;;;;;;;;;;4970628;28;20042;-57
2023/08/23 02:18:19;;;;;;;22.35;13.82;;;;;;;;;;4972066;28;20042;-57
2023/08/23 02:20:45;;;;;;;22.98;13.85;;;;;;;;;;4972523;28;20639;-57
2023/08/23 02:23:11;;;;;;;20.92;12.98;;;;;;;;;;4955017;28;20055;-57
2023/08/23 02:25:37;;;;;;;22.02;12.80;;;;;;;;;;4971628;28;20042;-57
2023/08/23 02:28:03;;;;;;;21.73;14.48;;;;;;;;;;4970855;28;20125;-58
2023/08/23 02:30:30;;;;;;;21.70;13.48;;;;;;;;;;4972397;28;20049;-57
2023/08/23 02:32:56;;;;;;;22.17;13.70;;;;;;;;;;4971246;28;20039;-57
2023/08/23 02:35:22;;;;;;;21.63;13.15;;;;;;;;;;4969962;28;20066;-57
2023/08/23 02:37:48;;;;;;;24.38;15.05;;;;;;;;;;4972141;28;20382;-57
2023/08/23 02:40:14;;;;;;;23.63;13.85;;;;;;;;;;4972980;28;20049;-57
2023/08/23 02:42:40;;;;;;;25.05;15.25;;;;;;;;;;4974622;28;20039;-57
2023/08/23 02:45:07;;;;;;;28.80;16.33;;;;;;;;;;4972275;28;20050;-57
2023/08/23 02:47:33;;;;;;;26.63;15.88;;;;;;;;;;4973822;28;20475;-57
2023/08/23 02:49:59;;;;;;;24.83;14.98;;;;;;;;;;4976381;28;20390;-56
2023/08/23 02:52:25;;;;;;;24.02;16.20;;;;;;;;;;4975266;28;20043;-57
2023/08/23 02:54:51;;;;;;;31.48;16.48;;;;;;;;;;4974457;28;20384;-57
2023/08/23 02:57:17;;;;;;;25.73;16.35;;;;;;;;;;4972701;28;20073;-57
2023/08/23 02:59:43;;;;;;;25.77;15.68;;;;;;;;;;4974801;28;20053;-57
2023/08/23 03:02:09;;;;;;;24.50;15.70;;;;;;;;;;4973742;28;20042;-57
2023/08/23 03:04:35;;;;;;;30.70;16.40;;;;;;;;;;4974263;28;20047;-56
2023/08/23 03:07:01;;;;;;;24.70;15.27;;;;;;;;;;4973760;28;20038;-56
2023/08/23 03:09:27;;;;;;;26.55;17.10;;;;;;;;;;4975011;28;20387;-57
2023/08/23 03:11:53;;;;;;;29.88;17.20;;;;;;;;;;4973262;28;20054;-57
2023/08/23 03:14:19;;;;;;;28.30;16.38;;;;;;;;;;4973447;28;20051;-57
2023/08/23 03:16:45;;;;;;;25.48;15.90;;;;;;;;;;4974060;28;20045;-57
2023/08/23 03:19:11;;;;;;;28.38;16.30;;;;;;;;;;4974056;28;20039;-56
2023/08/23 03:21:37;;;;;;;24.45;15.60;;;;;;;;;;4974955;28;20050;-57
2023/08/23 03:24:04;;;;;;;25.50;16.25;;;;;;;;;;4974350;28;20042;-58
2023/08/23 03:26:30;;;;;;;27.67;16.02;;;;;;;;;;4974782;28;20046;-57
2023/08/23 03:28:56;;;;;;;21.20;14.27;;;;;;;;;;4975967;28;20339;-57
2023/08/23 03:31:22;;;;;;;22.55;14.60;;;;;;;;;;4975095;28;20062;-57
2023/08/23 03:33:48;;;;;;;22.80;14.93;;;;;;;;;;4975743;28;20050;-57
2023/08/23 03:36:14;;;;;;;24.70;15.27;;;;;;;;;;4974200;28;20038;-57
2023/08/23 03:38:40;;;;;;;24.90;15.85;;;;;;;;;;4975642;28;20058;-57
2023/08/23 03:41:12;;;;;;;25.60;15.63;;;;;;;;;;4975376;28;20054;-58
2023/08/23 03:43:38;;;;;;;24.95;14.82;;;;;;;;;;4974579;28;20078;-58
2023/08/23 03:46:04;;;;;;;22.40;14.77;;;;;;;;;;4973540;28;20078;-58
2023/08/23 03:48:30;;;;;;;20.13;13.50;;;;;;;;;;4975884;28;20042;-57
2023/08/23 03:50:59;;;;;;;25.27;14.02;;;;;;;;;;4975360;28;20134;-57
2023/08/23 03:53:26;;;;;;;21.07;14.33;;;;;;;;;;4974066;28;20141;-57
2023/08/23 03:55:53;;;;;;;19.13;13.73;;;;;;;;;;4974559;28;20042;-57
2023/08/23 03:58:19;;;;;;;19.08;13.27;;;;;;;;;;4975359;28;20125;-57
2023/08/23 04:00:50;;;;;;;21.25;13.40;;;;;;;;;;4973265;28;20134;-57
2023/08/23 04:03:16;;;;;;;20.67;14.30;;;;;;;;;;4973926;28;20091;-57
2023/08/23 04:05:42;;;;;;;18.15;13.05;;;;;;;;;;4972834;28;20060;-57
2023/08/23 04:08:08;;;;;;;17.60;12.52;;;;;;;;;;4971549;28;20510;-57
2023/08/23 04:10:35;;;;;;;18.73;12.15;;;;;;;;;;4971432;28;20047;-57
2023/08/23 04:13:01;;;;;;;13.13;10.48;;;;;;;;;;4973981;28;20125;-57
2023/08/23 04:15:27;;;;;;;15.23;11.32;;;;;;;;;;4971900;28;20058;-57
2023/08/23 04:17:53;;;;;;;14.80;11.20;;;;;;;;;;4974455;28;20035;-57
2023/08/23 04:20:19;;;;;;;15.05;11.45;;;;;;;;;;4972961;28;20093;-57
2023/08/23 04:22:45;;;;;;;15.73;11.60;;;;;;;;;;4973917;28;20046;-57
2023/08/23 04:25:12;;;;;;;15.52;12.27;;;;;;;;;;4972357;28;20043;-57
2023/08/23 04:27:38;;;;;;;16.38;12.63;;;;;;;;;;4974118;28;20043;-57
2023/08/23 04:30:08;;;;;;;17.92;12.25;;;;;;;;;;4973464;28;20506;-58
2023/08/23 04:32:34;;;;;;;19.17;13.90;;;;;;;;;;4973010;28;20501;-57
2023/08/23 04:35:00;;;;;;;18.25;13.65;;;;;;;;;;4970021;28;20491;-56
2023/08/23 04:37:26;;;;;;;19.73;14.23;;;;;;;;;;4973480;28;20049;-57
2023/08/23 04:39:52;;;;;;;19.05;14.02;;;;;;;;;;4973450;28;20509;-56
2023/08/23 04:42:18;;;;;;;22.77;14.50;;;;;;;;;;4973063;28;20518;-57
2023/08/23 04:44:44;;;;;;;22.30;14.93;;;;;;;;;;4970777;28;20057;-57
2023/08/23 04:47:10;;;;;;;21.38;14.38;;;;;;;;;;4969631;28;20046;-57
2023/08/23 04:49:36;;;;;;;20.65;14.38;;;;;;;;;;4972416;28;20053;-57
2023/08/23 04:52:02;;;;;;;23.15;15.38;;;;;;;;;;4973653;28;20055;-60
2023/08/23 04:54:28;;;;;;;19.02;13.93;;;;;;;;;;4972817;28;20055;-57
2023/08/23 04:56:54;;;;;;;20.00;14.05;;;;;;;;;;4971116;28;20116;-57
2023/08/23 04:59:20;;;;;;;19.75;15.48;;;;;;;;;;4968620;28;20042;-58
2023/08/23 05:01:46;;;;;;;26.00;15.90;;;;;;;;;;4972896;28;20054;-57
2023/08/23 05:04:12;;;;;;;22.20;15.65;;;;;;;;;;4970482;28;20062;-57
2023/08/23 05:06:39;;;;;;;23.85;15.90;;;;;;;;;;4971981;28;20483;-57
2023/08/23 05:09:06;;;;;;;23.52;14.93;;;;;;;;;;4971845;28;20089;-57
2023/08/23 05:11:32;;;;;;;22.60;15.45;;;;;;;;;;4973123;28;20042;-57
2023/08/23 05:13:58;;;;;;;23.25;15.80;;;;;;;;;;4973144;28;20403;-57
2023/08/23 05:16:24;;;;;;;30.02;18.55;;;;;;;;;;4972215;28;20482;-57
2023/08/23 05:18:50;;;;;;;30.92;22.30;;;;;;;;;;4987105;28;20570;-57
2023/08/23 05:21:16;;;;;;;31.55;22.95;;;;;;;;;;4970528;28;20082;-58
2023/08/23 05:23:42;;;;;;;44.35;32.38;;;;;;;;;;4969651;28;20500;-57
2023/08/23 05:26:08;;;;;;;45.08;35.58;;;;;;;;;;4971033;28;20093;-57
2023/08/23 05:28:34;;;;;;;55.45;39.00;;;;;;;;;;4972406;28;20031;-60
2023/08/23 05:31:02;;;;;;;59.75;45.00;;;;;;;;;;4973376;28;20070;-61
2023/08/23 05:33:29;;;;;;;63.83;45.65;;;;;;;;;;4972240;28;20043;-61
2023/08/23 05:35:55;;;;;;;57.17;41.53;;;;;;;;;;4972230;28;20076;-61
2023/08/23 05:38:23;;;;;;;55.55;39.30;;;;;;;;;;4973125;28;20054;-61
2023/08/23 05:40:50;;;;;;;46.67;35.65;;;;;;;;;;4973485;28;20470;-61
2023/08/23 05:43:17;;;;;;;44.42;33.95;;;;;;;;;;4972439;28;20050;-61
2023/08/23 05:45:44;;;;;;;40.50;30.08;;;;;;;;;;4973879;28;20039;-61
2023/08/23 05:48:10;;;;;;;41.05;27.08;;;;;;;;;;4973243;28;20107;-61
2023/08/23 05:50:37;;;;;;;33.22;24.23;;;;;;;;;;4973334;28;20078;-61
2023/08/23 05:53:09;;;;;;;30.45;22.20;;;;;;;;;;4971020;28;20435;-61
2023/08/23 05:55:35;;;;;;;30.52;21.73;;;;;;;;;;4969944;28;20402;-61
2023/08/23 05:58:02;;;;;;;25.83;20.55;;;;;;;;;;4973053;28;20403;-61
2023/08/23 06:00:28;;;;;;;27.77;20.48;;;;;;;;;;4972115;28;20054;-61
2023/08/23 06:02:54;;;;;;;27.75;20.75;;;;;;;;;;4971715;28;20129;-62
2023/08/23 06:05:20;;;;;;;27.70;19.13;;;;;;;;;;4972835;28;20050;-61
2023/08/23 06:07:46;;;;;;;21.92;16.13;;;;;;;;;;4973225;28;20047;-60
2023/08/23 06:10:12;;;;;;;20.80;14.70;;;;;;;;;;4972553;28;20053;-61
2023/08/23 06:12:38;;;;;;;21.95;15.18;;;;;;;;;;4970602;28;20125;-61
2023/08/23 06:15:05;;;;;;;23.90;14.10;;;;;;;;;;4971820;28;20042;-61
2023/08/23 06:17:31;;;;;;;19.02;13.23;;;;;;;;;;4972374;28;20079;-61
2023/08/23 06:19:57;;;;;;;19.10;13.52;;;;;;;;;;4981214;28;20045;-61
2023/08/23 06:22:23;;;;;;;19.88;13.73;;;;;;;;;;4977743;28;20042;-61
2023/08/23 06:24:49;;;;;;;20.33;13.75;;;;;;;;;;4971187;28;20098;-60
2023/08/23 06:27:15;;;;;;;21.10;12.35;;;;;;;;;;4967098;28;20038;-61
2023/08/23 06:29:42;;;;;;;17.75;11.95;;;;;;;;;;4972639;28;20049;-61
2023/08/23 06:32:08;;;;;;;18.75;12.00;;;;;;;;;;4972316;28;20046;-57
2023/08/23 06:34:34;;;;;;;19.08;12.38;;;;;;;;;;4971658;28;20494;-56
2023/08/23 06:37:00;;;;;;;15.10;11.13;;;;;;;;;;4972269;28;20534;-56
2023/08/23 06:39:27;;;;;;;16.88;10.95;;;;;;;;;;4970698;28;20097;-56
2023/08/23 06:41:53;;;;;;;15.45;11.10;;;;;;;;;;4971156;28;20045;-57
2023/08/23 06:44:19;;;;;;;15.60;10.45;;;;;;;;;;4972794;28;20109;-56
2023/08/23 06:46:45;;;;;;;16.63;11.15;;;;;;;;;;4971662;28;20046;-57
2023/08/23 06:49:11;;;;;;;16.55;11.35;;;;;;;;;;4984233;28;20055;-56
2023/08/23 06:51:38;;;;;;;17.67;11.02;;;;;;;;;;4971188;28;20081;-56
2023/08/23 06:54:07;;;;;;;18.73;12.60;;;;;;;;;;4971510;28;20101;-56
2023/08/23 06:56:33;;;;;;;23.45;14.45;;;;;;;;;;4972790;28;20333;-56
2023/08/23 06:58:59;;;;;;;24.38;15.38;;;;;;;;;;4971619;28;20094;-56
2023/08/23 07:01:25;;;;;;;28.92;18.10;;;19.30;99.90;;;;;;4971654;28;20043;-56
2023/08/23 07:03:51;;;;;;;34.70;21.25;;;;;;;;;;4972449;28;20065;-57
2023/08/23 07:06:19;;;;;;;34.88;21.05;;;;;;;;;;4969359;28;20491;-56
2023/08/23 07:08:45;;;;;;;32.75;21.67;;;;;;;;;;4978146;28;20165;-56
2023/08/23 07:11:11;;;;;;;39.58;23.58;;;;;;;;;;4970964;28;20038;-60
2023/08/23 07:13:40;;;;;;;39.05;21.40;;;;;;;;;;4970198;28;20042;-59
2023/08/23 07:16:06;;;;;;;44.40;25.23;;;;;;;;;;4952134;28;20061;-59
2023/08/23 07:18:33;;;;;;;36.30;22.75;;;;;;;;;;4971837;28;20034;-58
2023/08/23 07:20:58;;;;;;;35.13;21.30;;;20.30;99.90;;;;;;4972446;28;20178;-60
2023/08/23 07:23:25;;;;;;;38.53;22.65;;;;;;;;;;4969187;28;20117;-59
2023/08/23 07:25:50;;;;;;;38.63;20.58;;;20.70;99.90;;;;;;4971158;28;20053;-58
2023/08/23 07:28:16;;;;;;;28.63;18.00;;;;;;;;;;4970223;28;20051;-59
2023/08/23 07:30:46;;;;;;;30.05;17.65;;;21.00;99.90;;;;;;4975276;28;20129;-56
2023/08/23 07:33:12;;;;;;;34.80;18.95;;;;;;;;;;4973885;28;20046;-57
2023/08/23 07:35:39;;;;;;;35.22;21.45;;;;;;;;;;4976155;28;20034;-56
2023/08/23 07:38:04;;;;;;;29.17;18.65;;;21.30;99.90;;;;;;4973050;28;20042;-57
2023/08/23 07:40:30;;;;;;;28.92;17.67;;;21.40;99.90;;;;;;4989167;28;20038;-56
2023/08/23 07:42:56;;;;;;;25.25;15.80;;;;;;;;;;4972112;28;20125;-56
2023/08/23 07:45:22;;;;;;;23.05;13.43;;;21.90;99.90;;;;;;4974974;28;20738;-59
2023/08/23 07:47:48;;;;;;;21.83;13.70;;;22.10;99.90;;;;;;4989967;28;20126;-57
2023/08/23 07:50:13;;;;;;;19.77;10.93;;;22.00;99.90;;;;;;4974869;28;20114;-57
2023/08/23 07:52:39;;;;;;;18.17;11.30;;;;;;;;;;4973433;28;20035;-56
2023/08/23 07:55:06;;;;;;;17.40;10.95;;;22.20;99.90;;;;;;4973408;28;21100;-57
2023/08/23 07:57:31;;;;;;;14.02;10.40;;;22.20;99.90;;;;;;4972174;28;20047;-56
2023/08/23 07:59:58;;;;;;;15.40;10.65;;;22.20;99.90;;;;;;4974389;28;20045;-56
2023/08/23 08:02:24;;;;;;;13.32;9.70;;;22.40;99.90;;;;;;4973704;28;20360;-57
2023/08/23 08:04:51;;;;;;;16.95;9.70;;;22.30;99.90;;;;;;4973836;28;20053;-58
2023/08/23 08:07:16;;;;;;;15.93;9.25;;;22.40;99.90;;;;;;4971803;28;20034;-56
2023/08/23 08:09:42;;;;;;;15.77;9.85;;;22.30;99.90;;;;;;4974573;28;20180;-57
2023/08/23 08:12:08;;;;;;;15.27;10.15;;;;;;;;;;4973109;28;20043;-56
2023/08/23 08:14:34;;;;;;;17.45;10.40;;;;;;;;;;4974784;28;20150;-57
2023/08/23 08:17:00;;;;;;;17.98;10.50;;;22.20;99.90;;;;;;4974032;28;20487;-57
2023/08/23 08:19:26;;;;;;;19.45;11.98;;;;;;;;;;4974502;28;20142;-57
2023/08/23 08:21:53;;;;;;;17.35;11.77;;;22.40;99.90;;;;;;4986106;28;20046;-62
2023/08/23 08:24:19;;;;;;;17.50;10.75;;;22.40;99.90;;;;;;4968789;28;20066;-56
2023/08/23 08:26:45;;;;;;;16.20;12.30;;;22.70;99.90;;;;;;4971917;28;20053;-56
2023/08/23 08:29:10;;;;;;;16.65;12.25;;;22.90;99.90;;;;;;4969262;28;20184;-57
2023/08/23 08:31:39;;;;;;;15.10;10.13;;;23.00;99.90;;;;;;4974103;28;20442;-57
2023/08/23 08:34:05;;;;;;;18.37;11.07;;;23.10;99.90;;;;;;4978978;28;20042;-56
2023/08/23 08:36:31;;;;;;;14.30;8.80;;;23.30;99.90;;;;;;4976077;28;20555;-56
2023/08/23 08:38:57;;;;;;;17.85;11.23;;;23.60;99.90;;;;;;4963371;28;20085;-56
2023/08/23 08:41:23;;;;;;;14.23;9.80;;;23.80;99.90;;;;;;4981171;28;20057;-56
2023/08/23 08:43:49;;;;;;;18.70;11.13;;;23.60;99.90;;;;;;4972362;28;20070;-56
2023/08/23 08:46:15;;;;;;;15.32;11.40;;;23.60;99.90;;;;;;4977763;28;20034;-56
2023/08/23 08:48:41;;;;;;;19.10;11.80;;;23.70;99.90;;;;;;4988995;28;20463;-55
2023/08/23 08:51:11;;;;;;;16.98;10.98;;;23.60;99.90;;;;;;4973829;28;20049;-56
2023/08/23 08:53:38;;;;;;;19.77;11.23;;;23.60;99.90;;;;;;4974408;28;20093;-55
2023/08/23 08:56:08;;;;;;;15.65;10.55;;;23.60;99.90;;;;;;4973994;28;20055;-55
2023/08/23 08:58:34;;;;;;;17.40;11.30;;;23.40;99.90;;;;;;4987781;28;20038;-56
2023/08/23 09:01:03;;;;;;;15.00;10.80;;;23.70;99.90;;;;;;4984258;28;20086;-56
2023/08/23 09:03:29;;;;;;;17.98;11.80;;;23.70;99.90;;;;;;4988815;28;20122;-56
2023/08/23 09:05:55;;;;;;;13.75;9.30;;;24.20;99.90;;;;;;4981295;28;20388;-56
2023/08/23 09:08:21;;;;;;;17.45;10.15;;;24.20;99.90;;;;;;4970606;28;20061;-58
2023/08/23 09:10:50;;;;;;;19.80;9.50;;;24.20;99.90;;;;;;4990902;28;20043;-59
2023/08/23 09:13:16;;;;;;;20.42;9.27;;;24.40;99.90;;;;;;4973799;28;20051;-56
2023/08/23 09:15:42;;;;;;;14.15;9.13;;;23.00;99.90;;;;;;4991905;28;20038;-58
2023/08/23 09:18:08;;;;;;;18.17;9.05;;;24.90;99.90;;;;;;4992864;28;20113;-61
2023/08/23 09:20:37;;;;;;;14.50;8.35;;;24.80;99.90;;;;;;4988809;28;20035;-60
2023/08/23 09:23:03;;;;;;;15.55;9.18;;;24.60;99.90;;;;;;4975507;28;20050;-61
2023/08/23 09:25:29;;;;;;;20.50;9.43;;;24.70;99.90;;;;;;4976192;28;20065;-60
2023/08/23 09:27:55;;;;;;;14.23;8.90;;;24.40;99.90;;;;;;4974435;28;20047;-59
2023/08/23 09:30:20;;;;;;;13.85;8.70;;;24.40;99.90;;;;;;4978263;28;20062;-59
2023/08/23 09:32:46;;;;;;;12.95;8.15;;;24.40;99.90;;;;;;4975304;28;20078;-62
2023/08/23 09:35:17;;;;;;;19.27;8.52;;;24.60;99.90;;;;;;4974508;28;20374;-57
2023/08/23 09:37:44;;;;;;;14.57;8.30;;;24.50;99.90;;;;;;4975440;28;20379;-57
2023/08/23 09:40:24;;;;;;;17.15;8.82;;;24.40;99.90;;;;;;4977976;28;20042;-59
2023/08/23 09:42:51;;;;;;;13.85;7.90;;;24.20;99.90;;;;;;4979219;28;20054;-58
2023/08/23 09:45:22;;;;;;;16.42;8.38;;;24.00;99.90;;;;;;4979293;28;20104;-59
2023/08/23 09:47:58;;;;;;;14.88;7.72;;;24.30;99.90;;;;;;4975731;28;20038;-57
2023/08/23 09:50:25;;;;;;;14.18;8.82;;;24.30;99.90;;;;;;4975692;28;20050;-58
2023/08/23 09:53:00;;;;;;;14.63;8.73;;;23.90;99.90;;;;;;4977153;28;20104;-60
2023/08/23 09:55:30;;;;;;;12.93;7.65;;;24.70;99.90;;;;;;4976887;28;20104;-60
2023/08/23 09:57:57;;;;;;;10.73;7.15;;;24.70;99.90;;;;;;4963173;28;20576;-59
2023/08/23 10:00:23;;;;;;;12.75;7.75;;;25.00;99.90;;;;;;4977757;28;20050;-59
2023/08/23 10:02:48;;;;;;;26.20;7.50;;;25.30;99.90;;;;;;4977197;28;20046;-59
2023/08/23 10:05:16;;;;;;;14.95;7.88;;;25.30;99.90;;;;;;4979183;28;20034;-59
2023/08/23 10:07:42;;;;;;;15.40;6.70;;;25.20;99.90;;;;;;4979766;28;20043;-60
2023/08/23 10:10:09;;;;;;;13.77;7.30;;;25.50;99.90;;;;;;4978270;28;20055;-58
2023/08/23 10:12:47;;;;;;;15.02;7.40;;;25.20;99.90;;;;;;4976253;28;20463;-58
2023/08/23 10:15:18;;;;;;;17.17;7.75;;;24.90;99.90;;;;;;4977205;28;20042;-60
2023/08/23 10:17:47;;;;;;;15.45;7.57;;;24.40;99.90;;;;;;4971963;28;20074;-60
2023/08/23 10:20:14;;;;;;;14.57;6.40;;;24.90;99.90;;;;;;4972690;28;20439;-60
2023/08/23 10:22:40;;;;;;;13.13;5.93;;;24.70;99.90;;;;;;4970842;28;20390;-61
2023/08/23 10:25:19;;;;;;;14.93;6.95;;;24.90;99.90;;;;;;4981664;28;20050;-58
2023/08/23 10:27:46;;;;;;;16.70;7.38;;;25.30;99.90;;;;;;4974792;28;20135;-61
2023/08/23 10:30:23;;;;;;;13.15;6.70;;;25.30;99.90;;;;;;4978890;28;20390;-57
2023/08/23 10:32:49;;;;;;;16.10;6.47;;;25.80;99.90;;;;;;4989776;28;20051;-58
2023/08/23 10:35:34;;;;;;;11.77;5.72;;;25.90;99.90;;;;;;4987717;28;20049;-57
2023/08/23 10:38:00;;;;;;;12.90;6.82;;;26.20;99.90;;;;;;4979753;28;20049;-61
2023/08/23 10:40:30;;;;;;;11.35;5.57;;;26.00;99.90;;;;;;4990214;28;20116;-61
2023/08/23 10:47:32;;;;;;;11.60;4.78;;;26.30;99.90;;;;;;4976694;28;20034;-59
2023/08/23 10:49:59;;;;;;;8.85;4.45;;;26.30;99.90;;;;;;4989785;28;20475;-59
2023/08/23 10:52:25;;;;;;;10.60;4.85;;;26.10;99.90;;;;;;5002485;28;20079;-58
2023/08/23 10:54:51;;;;;;;7.93;3.90;;;25.80;99.90;;;;;;4974819;28;20046;-60
2023/08/23 10:57:17;;;;;;;9.10;5.32;;;25.90;99.90;;;;;;4977691;28;20049;-60
2023/08/23 10:59:44;;;;;;;15.30;4.72;;;25.80;99.90;;;;;;4997435;28;20099;-60
2023/08/23 11:02:11;;;;;;;11.48;4.50;;;25.60;99.90;;;;;;4992415;28;20051;-59
2023/08/23 11:04:37;;;;;;;11.88;4.75;;;25.80;99.90;;;;;;4997927;28;20045;-59
2023/08/23 11:07:03;;;;;;;11.13;4.25;;;;;;;;;;4998104;28;20466;-60
2023/08/23 11:09:29;;;;;;;7.43;4.40;;;25.80;99.90;;;;;;5000950;28;20038;-60
2023/08/23 11:11:55;;;;;;;8.40;4.15;;;26.00;99.90;;;;;;4988566;28;20041;-63
2023/08/23 11:14:20;;;;;;;7.65;3.75;;;26.00;99.90;;;;;;5008347;28;20052;-66
2023/08/23 11:16:46;;;;;;;10.27;4.47;;;26.30;99.90;;;;;;4997165;28;20064;-62
2023/08/23 11:19:12;;;;;;;47.75;5.97;;;26.50;99.90;;;;;;5000455;28;20037;-60
2023/08/23 11:21:38;;;;;;;8.50;3.33;;;26.50;99.90;;;;;;4997918;28;20034;-61
2023/08/23 11:24:05;;;;;;;11.98;3.47;;;26.70;99.90;;;;;;4996128;28;20129;-61
2023/08/23 11:26:37;;;;;;;6.13;3.30;;;26.80;99.90;;;;;;4976059;28;20085;-63
2023/08/23 11:29:04;;;;;;;7.05;3.40;;;27.00;99.90;;;;;;4975806;28;20494;-61
2023/08/23 11:31:35;;;;;;;7.95;4.15;;;27.20;99.90;;;;;;4994155;28;20126;-63
2023/08/23 11:34:08;;;;;;;10.55;3.20;;;26.70;99.90;;;;;;4991497;28;20046;-61
2023/08/23 11:36:37;;;;;;;7.35;3.08;;;26.60;99.90;;;;;;4976040;28;20038;-62
2023/08/23 11:39:04;;;;;;;7.35;2.90;;;27.10;99.90;;;;;;4999153;28;20193;-62
2023/08/23 11:41:34;;;;;;;6.72;3.50;;;27.00;99.90;;;;;;4995441;28;20046;-66
2023/08/23 11:44:03;;;;;;;;;;;27.20;99.90;;;;;;4992587;28;20057;-63
2023/08/23 11:46:29;;;;;;;6.47;2.75;;;27.30;99.90;;;;;;4992572;28;19917;-62
2023/08/23 11:48:55;;;;;;;8.65;2.88;;;27.30;99.90;;;;;;4996431;28;20390;-63
2023/08/23 12:40:50;;;;;;;4.43;1.50;;;;;;;;;;5085184;27;20502;-59
2023/08/23 12:43:16;;;;;;;4.75;1.63;;;;;;;;;;5065997;28;20040;-58
2023/08/23 12:45:44;;;;;;;5.20;1.55;;;27.00;99.90;;;;;;5069470;28;20095;-57
2023/08/23 12:48:10;;;;;;;5.18;1.50;;;26.80;99.90;;;;;;5062978;28;20485;-56
2023/08/23 12:50:36;;;;;;;6.85;1.80;;;;;;;;;;5057017;28;20106;-59
2023/08/23 12:53:02;;;;;;;8.00;1.73;;;;;;;;;;5068925;28;20044;-59
2023/08/23 12:55:28;;;;;;;4.55;1.52;;;26.60;99.90;;;;;;5060545;28;20049;-59
2023/08/23 12:57:53;;;;;;;4.47;1.98;;;26.50;99.90;;;;;;5059433;28;20045;-59
2023/08/23 13:00:19;;;;;;;4.07;1.58;;;26.70;99.90;;;;;;5068687;28;20048;-61
2023/08/23 13:02:45;;;;;;;6.53;2.10;;;26.60;99.90;;;;;;5069126;28;20041;-57
2023/08/23 13:05:11;;;;;;;6.88;2.30;;;;;;;;;;5066443;28;20049;-59
2023/08/23 13:07:37;;;;;;;8.05;2.15;;;26.90;99.90;;;;;;5064986;28;20141;-59
2023/08/23 13:10:03;;;;;;;6.63;1.88;;;;;;;;;;5067219;28;20041;-59
2023/08/23 13:12:28;;;;;;;6.80;2.00;;;27.10;99.90;;;;;;5068851;28;20048;-60
2023/08/23 13:14:55;;;;;;;8.05;2.45;;;;;;;;;;5067779;28;20094;-60
2023/08/23 13:17:21;;;;;;;8.93;2.28;;;;;;;;;;5049872;28;20501;-57
2023/08/23 13:19:46;;;;;;;4.63;2.05;;;27.20;99.90;;;;;;5066511;28;20094;-60
2023/08/23 13:22:12;;;;;;;10.73;2.50;;;26.90;99.90;;;;;;5068123;28;20427;-62
2023/08/23 13:24:38;;;;;;;5.82;2.38;;;27.00;99.90;;;;;;5049244;28;20052;-61
2023/08/23 13:27:04;;;;;;;9.13;2.92;;;26.60;99.90;;;;;;5051607;28;20048;-60
2023/08/23 13:29:30;;;;;;;11.18;3.35;;;26.60;99.90;;;;;;5047547;28;20481;-59
2023/08/23 13:31:58;;;;;;;6.90;2.85;;;26.30;99.90;;;;;;5047354;28;20060;-62
2023/08/23 13:34:23;;;;;;;9.00;2.92;;;26.20;99.90;;;;;;5058584;28;20044;-61
2023/08/23 13:36:49;;;;;;;6.07;2.45;;;26.20;99.90;;;;;;5060347;28;20044;-62
2023/08/23 13:39:15;;;;;;;7.20;3.08;;;25.90;99.90;;;;;;5050069;28;20052;-59
2023/08/23 13:41:41;;;;;;;7.90;3.33;;;25.70;99.90;;;;;;5067186;28;20374;-60
2023/08/23 13:44:07;;;;;;;9.07;3.03;;;25.70;99.90;;;;;;5065327;28;20071;-56
2023/08/23 13:46:33;;;;;;;8.15;3.53;;;;;;;;;;5066399;28;20049;-58
2023/08/23 13:48:58;;;;;;;8.32;2.90;;;26.20;99.90;;;;;;5065406;28;20449;-60
2023/08/23 13:51:24;;;;;;;9.35;3.08;;;26.20;99.90;;;;;;5056718;28;20120;-60
2023/08/23 13:53:50;;;;;;;8.85;3.35;;;26.60;99.90;;;;;;5050807;28;20072;-61
2023/08/23 13:56:15;;;;;;;6.57;3.00;;;26.50;99.90;;;;;;5051719;28;20707;-60
2023/08/23 13:58:41;;;;;;;7.13;3.42;;;26.50;99.90;;;;;;5047404;28;20053;-60
2023/08/23 14:01:07;;;;;;;10.85;3.35;;;26.40;99.90;;;;;;5044323;28;20052;-59
2023/08/23 14:03:33;;;;;;;10.63;4.03;;;26.50;99.90;;;;;;5047673;28;20069;-59
2023/08/23 14:06:02;;;;;;;9.05;3.25;;;26.60;99.90;;;;;;5052126;28;20055;-59
2023/08/23 14:08:29;;;;;;;7.00;2.20;;;26.50;99.90;;;;;;5050271;28;20041;-59
2023/08/23 14:10:55;;;;;;;12.95;3.95;;;;;;;;;;5050184;28;20167;-62
2023/08/23 14:13:21;;;;;;;8.80;4.85;;;26.40;99.90;;;;;;5051016;28;20439;-60
2023/08/23 14:15:49;;;;;;;12.13;5.22;;;26.50;99.90;;;;;;5041360;28;20041;-61
2023/08/23 14:18:14;;;;;;;12.27;5.80;;;26.00;99.90;;;;;;5052636;28;20071;-60
2023/08/23 14:20:40;;;;;;;9.80;5.60;;;25.50;99.90;;;;;;5051237;28;20036;-61
2023/08/23 14:23:06;;;;;;;17.90;7.18;;;;;;;;;;5038883;28;20048;-60
2023/08/23 14:25:32;;;;;;;13.27;6.38;;;;;;;;;;5051743;28;20489;-63
2023/08/23 14:27:59;;;;;;;14.80;5.82;;;25.60;99.90;;;;;;5051700;28;20045;-63
2023/08/23 14:30:25;;;;;;;10.68;5.07;;;;;;;;;;5052469;28;20052;-68